createdAt,value
2019-02-19T00:00:39.392Z,9.5
2019-02-19T00:01:38.036Z,9.5
2019-02-19T00:02:36.549Z,9.48
2019-02-19T00:03:35.138Z,9.54
2019-02-19T00:04:33.758Z,9.48
2019-02-19T00:05:32.304Z,9.54
2019-02-19T00:06:30.997Z,9.53
2019-02-19T00:07:29.543Z,9.54
2019-02-19T00:08:28.445Z,9.57
2019-02-19T00:09:27.130Z,9.47
2019-02-19T00:10:25.692Z,9.47
2019-02-19T00:11:24.671Z,9.53
2019-02-19T00:12:23.427Z,9.54
2019-02-19T00:13:22.008Z,9.38
2019-02-19T00:14:20.680Z,9.56
2019-02-19T00:15:19.355Z,9.39
2019-02-19T00:16:17.837Z,9.48
2019-02-19T00:17:16.566Z,9.48
2019-02-19T00:18:15.209Z,9.38
2019-02-19T00:19:13.740Z,9.46
2019-02-19T00:20:12.293Z,9.31
2019-02-19T00:21:11.218Z,9.39
2019-02-19T00:22:09.752Z,9.38
2019-02-19T00:23:08.402Z,9.38
2019-02-19T00:24:06.965Z,9.46
2019-02-19T00:25:05.510Z,9.35
2019-02-19T00:26:04.034Z,9.4
2019-02-19T00:27:02.827Z,9.13
2019-02-19T00:28:01.514Z,9.26
2019-02-19T00:29:00.149Z,9.43
2019-02-19T00:29:59.064Z,9.4
2019-02-19T00:30:57.630Z,9.43
2019-02-19T00:31:56.155Z,9.39
2019-02-19T00:32:54.699Z,9.29
2019-02-19T00:33:53.255Z,9.32
2019-02-19T00:34:51.797Z,9.28
2019-02-19T00:35:50.479Z,9.24
2019-02-19T00:36:49.225Z,9.24
2019-02-19T00:37:47.722Z,9.08
2019-02-19T00:38:46.327Z,9.15
2019-02-19T00:39:45.009Z,9.15
2019-02-19T00:40:43.553Z,9.14
2019-02-19T00:41:42.091Z,9.15
2019-02-19T00:42:40.722Z,9.17
2019-02-19T00:43:39.265Z,9.15
2019-02-19T00:44:37.843Z,9.08
2019-02-19T00:45:36.646Z,9.05
2019-02-19T00:46:35.256Z,8.94
2019-02-19T00:47:33.813Z,8.96
2019-02-19T00:48:32.623Z,8.89
2019-02-19T00:49:31.371Z,8.92
2019-02-19T00:50:29.922Z,8.91
2019-02-19T00:51:28.469Z,9.01
2019-02-19T00:52:27.079Z,9.08
2019-02-19T00:53:25.685Z,9.05
2019-02-19T00:54:24.223Z,9.13
2019-02-19T00:55:22.830Z,9.1
2019-02-19T00:56:21.574Z,9.08
2019-02-19T00:57:20.160Z,9.14
2019-02-19T00:58:18.757Z,8.95
2019-02-19T00:59:17.511Z,9.02
2019-02-19T01:00:15.969Z,8.98
2019-02-19T01:01:14.517Z,9.05
2019-02-19T01:02:13.112Z,9.05
2019-02-19T01:03:11.732Z,8.96
2019-02-19T01:04:10.439Z,9.02
2019-02-19T01:05:09.003Z,9.08
2019-02-19T01:06:07.645Z,9.08
2019-02-19T01:07:06.173Z,9.17
2019-02-19T01:08:04.764Z,9.08
2019-02-19T01:09:03.400Z,9.13
2019-02-19T01:10:01.943Z,9.1
2019-02-19T01:11:00.703Z,9.02
2019-02-19T01:11:59.284Z,9.08
2019-02-19T01:12:57.845Z,8.99
2019-02-19T01:13:56.395Z,9.01
2019-02-19T01:14:55.053Z,9.01
2019-02-19T01:15:53.611Z,9.01
2019-02-19T01:16:52.120Z,8.95
2019-02-19T01:17:50.718Z,9.08
2019-02-19T01:18:49.336Z,9.08
2019-02-19T01:19:47.863Z,9.02
2019-02-19T01:20:46.692Z,9.14
2019-02-19T01:21:45.375Z,9.13
2019-02-19T01:22:43.958Z,9.02
2019-02-19T01:23:42.482Z,9.04
2019-02-19T01:24:41.053Z,9.08
2019-02-19T01:25:39.599Z,9.02
2019-02-19T01:26:38.139Z,9.1
2019-02-19T01:27:36.765Z,9.01
2019-02-19T01:28:35.379Z,9.04
2019-02-19T01:29:33.895Z,9.11
2019-02-19T01:30:32.456Z,9.1
2019-02-19T01:31:31.244Z,9.01
2019-02-19T01:32:29.790Z,9.1
2019-02-19T01:33:28.344Z,9.2
2019-02-19T01:34:27.042Z,9.01
2019-02-19T01:35:25.578Z,8.95
2019-02-19T01:36:24.118Z,8.83
2019-02-19T01:37:22.721Z,8.86
2019-02-19T01:38:21.556Z,8.89
2019-02-19T01:39:20.110Z,8.91
2019-02-19T01:40:18.929Z,9.02
2019-02-19T01:41:17.469Z,8.84
2019-02-19T01:42:16.058Z,8.8
2019-02-19T01:43:14.761Z,8.71
2019-02-19T01:44:13.305Z,8.84
2019-02-19T01:45:11.851Z,8.81
2019-02-19T01:46:10.549Z,8.8
2019-02-19T01:47:09.142Z,8.7
2019-02-19T01:48:07.692Z,8.66
2019-02-19T01:49:06.245Z,8.59
2019-02-19T01:50:05.245Z,8.44
2019-02-19T01:51:03.742Z,8.29
2019-02-19T01:52:02.309Z,8.26
2019-02-19T01:53:00.960Z,8.3
2019-02-19T01:53:59.509Z,8.34
2019-02-19T01:54:58.083Z,8.25
2019-02-19T01:55:56.792Z,8.3
2019-02-19T01:56:55.477Z,8.3
2019-02-19T01:57:54.025Z,8.36
2019-02-19T01:58:52.730Z,8.29
2019-02-19T01:59:51.349Z,8.36
2019-02-19T02:00:49.918Z,8.28
2019-02-19T02:01:48.481Z,8.26
2019-02-19T02:02:47.052Z,8.3
2019-02-19T02:03:45.623Z,8.26
2019-02-19T02:04:44.184Z,8.18
2019-02-19T02:05:42.746Z,8.2
2019-02-19T02:06:41.305Z,8.08
2019-02-19T02:07:39.863Z,8.19
2019-02-19T02:08:38.529Z,8.16
2019-02-19T02:09:37.116Z,8.26
2019-02-19T02:10:35.659Z,8.23
2019-02-19T02:11:34.216Z,8.23
2019-02-19T02:12:33.065Z,8.25
2019-02-19T02:13:31.637Z,8.38
2019-02-19T02:14:30.193Z,8.29
2019-02-19T02:15:28.801Z,8.37
2019-02-19T02:16:27.353Z,8.37
2019-02-19T02:17:25.889Z,8.33
2019-02-19T02:18:24.429Z,8.28
2019-02-19T02:19:22.976Z,8.4
2019-02-19T02:20:21.528Z,8.37
2019-02-19T02:21:20.076Z,8.37
2019-02-19T02:22:18.768Z,8.38
2019-02-19T02:23:17.453Z,8.3
2019-02-19T02:24:16.026Z,8.25
2019-02-19T02:25:14.655Z,8.38
2019-02-19T02:26:13.241Z,8.36
2019-02-19T02:27:11.801Z,8.38
2019-02-19T02:28:10.335Z,8.43
2019-02-19T02:29:09.006Z,8.41
2019-02-19T02:30:07.608Z,8.4
2019-02-19T02:31:06.171Z,8.43
2019-02-19T02:32:04.794Z,8.47
2019-02-19T02:33:03.338Z,8.5
2019-02-19T02:34:01.902Z,8.47
2019-02-19T02:35:00.509Z,8.43
2019-02-19T02:35:59.283Z,8.47
2019-02-19T02:36:57.818Z,8.56
2019-02-19T02:37:56.488Z,8.4
2019-02-19T02:38:55.145Z,8.48
2019-02-19T02:39:53.666Z,8.45
2019-02-19T02:40:52.238Z,8.48
2019-02-19T02:41:50.783Z,8.61
2019-02-19T02:42:49.340Z,8.55
2019-02-19T02:43:47.887Z,8.56
2019-02-19T02:44:46.477Z,8.53
2019-02-19T02:45:52.636Z,8.5
2019-02-19T02:46:43.680Z,8.38
2019-02-19T02:47:42.238Z,8.41
2019-02-19T02:48:40.855Z,8.45
2019-02-19T02:49:39.397Z,8.45
2019-02-19T02:50:37.943Z,8.55
2019-02-19T02:51:36.597Z,8.5
2019-02-19T02:52:35.228Z,8.44
2019-02-19T02:53:33.778Z,8.62
2019-02-19T02:54:32.322Z,8.65
2019-02-19T02:55:30.893Z,8.56
2019-02-19T02:56:29.478Z,8.63
2019-02-19T02:57:28.032Z,8.68
2019-02-19T02:58:26.569Z,8.5
2019-02-19T02:59:25.107Z,8.63
2019-02-19T03:00:23.663Z,8.68
2019-02-19T03:01:22.243Z,8.63
2019-02-19T03:02:20.820Z,8.58
2019-02-19T03:03:19.384Z,8.52
2019-02-19T03:04:17.911Z,8.44
2019-02-19T03:05:16.500Z,8.61
2019-02-19T03:06:15.278Z,8.66
2019-02-19T03:07:13.833Z,8.66
2019-02-19T03:08:12.474Z,8.56
2019-02-19T03:09:11.191Z,8.48
2019-02-19T03:10:09.737Z,8.52
2019-02-19T03:11:08.287Z,8.59
2019-02-19T03:12:06.811Z,8.48
2019-02-19T03:13:05.372Z,8.41
2019-02-19T03:14:03.913Z,8.5
2019-02-19T03:15:02.431Z,8.65
2019-02-19T03:16:02.570Z,8.63
2019-02-19T03:16:59.707Z,8.58
2019-02-19T03:17:58.264Z,8.53
2019-02-19T03:18:57.150Z,8.71
2019-02-19T03:19:55.714Z,8.74
2019-02-19T03:20:54.264Z,8.74
2019-02-19T03:21:52.874Z,8.76
2019-02-19T03:22:51.421Z,8.56
2019-02-19T03:23:49.976Z,8.65
2019-02-19T03:24:48.530Z,8.58
2019-02-19T03:25:47.082Z,8.58
2019-02-19T03:26:45.626Z,8.66
2019-02-19T03:27:44.146Z,8.71
2019-02-19T03:28:42.731Z,8.58
2019-02-19T03:29:41.370Z,8.73
2019-02-19T03:30:39.952Z,8.66
2019-02-19T03:31:38.514Z,8.68
2019-02-19T03:32:37.275Z,8.66
2019-02-19T03:33:35.814Z,8.62
2019-02-19T03:34:34.429Z,8.7
2019-02-19T03:35:33.061Z,8.71
2019-02-19T03:36:31.613Z,8.73
2019-02-19T03:37:30.170Z,8.66
2019-02-19T03:41:08.965Z,8.36
2019-02-19T03:42:07.681Z,8.34
2019-02-19T03:43:06.223Z,8.38
2019-02-19T03:44:04.961Z,8.29
2019-02-19T03:45:03.525Z,8.16
2019-02-19T03:46:11.428Z,8.11
2019-02-19T03:47:00.678Z,8.19
2019-02-19T03:47:59.338Z,8.11
2019-02-19T03:48:57.884Z,8.16
2019-02-19T03:49:56.495Z,8.05
2019-02-19T03:50:55.165Z,8.1
2019-02-19T03:51:53.725Z,8.12
2019-02-19T03:52:52.306Z,8.12
2019-02-19T03:53:51.080Z,8.19
2019-02-19T03:56:14.076Z,8.02
2019-02-19T03:57:12.629Z,8.1
2019-02-19T03:58:11.198Z,8.08
2019-02-19T03:59:09.728Z,8.19
2019-02-19T04:00:08.300Z,8.07
2019-02-19T04:01:06.880Z,8.15
2019-02-19T04:02:05.467Z,8.08
2019-02-19T04:03:04.021Z,8.08
2019-02-19T04:04:02.619Z,8
2019-02-19T04:05:01.199Z,7.93
2019-02-19T04:05:59.755Z,7.85
2019-02-19T04:06:58.292Z,7.87
2019-02-19T04:07:56.906Z,7.83
2019-02-19T04:08:55.465Z,7.89
2019-02-19T04:09:54.013Z,7.89
2019-02-19T04:10:52.563Z,7.98
2019-02-19T04:11:51.095Z,7.98
2019-02-19T04:12:49.677Z,8
2019-02-19T04:13:48.238Z,8
2019-02-19T04:14:46.923Z,7.83
2019-02-19T04:15:45.609Z,7.8
2019-02-19T04:16:44.259Z,7.8
2019-02-19T04:17:42.897Z,7.79
2019-02-19T04:18:41.518Z,7.75
2019-02-19T04:19:40.096Z,7.92
2019-02-19T04:20:38.667Z,7.82
2019-02-19T04:21:37.218Z,7.79
2019-02-19T04:22:35.774Z,7.82
2019-02-19T04:23:34.442Z,7.74
2019-02-19T04:24:33.161Z,7.68
2019-02-19T04:25:31.658Z,7.5
2019-02-19T04:26:30.207Z,7.71
2019-02-19T04:27:28.906Z,7.69
2019-02-19T04:28:27.496Z,7.87
2019-02-19T04:29:26.056Z,7.9
2019-02-19T04:30:24.611Z,7.93
2019-02-19T04:31:23.267Z,7.86
2019-02-19T04:32:21.877Z,7.9
2019-02-19T04:33:20.411Z,7.97
2019-02-19T04:34:18.959Z,8.02
2019-02-19T04:35:17.495Z,8.02
2019-02-19T04:36:16.092Z,8.1
2019-02-19T04:37:14.653Z,8.04
2019-02-19T04:38:13.307Z,8.15
2019-02-19T04:39:11.864Z,8.04
2019-02-19T04:40:10.745Z,8.04
2019-02-19T04:41:09.425Z,8.01
2019-02-19T04:42:07.970Z,7.97
2019-02-19T04:43:06.549Z,8.04
2019-02-19T04:44:05.107Z,7.89
2019-02-19T04:45:03.678Z,7.9
2019-02-19T04:46:02.281Z,7.93
2019-02-19T04:47:00.945Z,7.83
2019-02-19T04:47:59.625Z,7.87
2019-02-19T04:48:58.211Z,7.89
2019-02-19T04:49:57.281Z,7.89
2019-02-19T04:50:55.878Z,7.89
2019-02-19T04:51:54.513Z,8.05
2019-02-19T04:52:53.280Z,8.05
2019-02-19T04:53:51.830Z,8.04
2019-02-19T04:54:50.501Z,8.02
2019-02-19T04:55:49.139Z,8.08
2019-02-19T04:56:47.710Z,8.11
2019-02-19T04:57:46.283Z,8.11
2019-02-19T04:58:44.796Z,8.08
2019-02-19T04:59:43.370Z,8.04
2019-02-19T05:00:41.906Z,7.92
2019-02-19T05:01:40.439Z,7.8
2019-02-19T05:02:39.012Z,7.71
2019-02-19T05:03:37.567Z,7.72
2019-02-19T05:04:36.196Z,7.57
2019-02-19T05:05:35.174Z,7.53
2019-02-19T05:06:33.728Z,7.63
2019-02-19T05:09:14.104Z,7.71
2019-02-19T05:10:12.810Z,7.69
2019-02-19T05:11:11.474Z,7.63
2019-02-19T05:12:10.029Z,7.55
2019-02-19T05:13:08.643Z,7.45
2019-02-19T05:14:07.389Z,7.3
2019-02-19T05:15:05.943Z,7.39
2019-02-19T05:16:04.509Z,7.5
2019-02-19T05:17:03.051Z,7.4
2019-02-19T05:18:01.627Z,7.4
2019-02-19T05:19:00.147Z,7.45
2019-02-19T05:19:58.874Z,7.45
2019-02-19T05:20:57.540Z,7.55
2019-02-19T05:21:56.104Z,7.48
2019-02-19T05:22:54.853Z,7.39
2019-02-19T05:23:53.614Z,7.31
2019-02-19T05:24:52.270Z,7.4
2019-02-19T05:25:50.832Z,7.45
2019-02-19T05:37:31.602Z,7.34
2019-02-19T05:38:30.136Z,7.31
2019-02-19T05:39:28.837Z,7.3
2019-02-19T05:40:27.410Z,7.42
2019-02-19T05:41:25.968Z,7.31
2019-02-19T05:42:24.489Z,7.32
2019-02-19T05:43:23.113Z,7.27
2019-02-19T05:44:21.610Z,7.28
2019-02-19T05:45:20.172Z,7.25
2019-02-19T05:46:18.833Z,7.17
2019-02-19T05:47:17.563Z,7.09
2019-02-19T05:48:16.153Z,7.13
2019-02-19T05:49:14.843Z,7.31
2019-02-19T05:50:13.439Z,7.17
2019-02-19T05:51:12.048Z,7.21
2019-02-19T05:52:10.591Z,7.28
2019-02-19T05:53:09.173Z,7.3
2019-02-19T05:54:07.742Z,7.28
2019-02-19T05:55:06.412Z,7.4
2019-02-19T05:56:05.329Z,7.24
2019-02-19T05:57:03.900Z,7.24
2019-02-19T05:58:02.480Z,7.28
2019-02-19T05:59:01.109Z,7.43
2019-02-19T05:59:59.802Z,7.32
2019-02-19T06:00:58.226Z,7.35
2019-02-19T06:01:56.768Z,7.46
2019-02-19T06:02:55.284Z,7.27
2019-02-19T06:05:35.598Z,7.37
2019-02-19T06:06:34.159Z,7.34
2019-02-19T06:07:32.663Z,7.28
2019-02-19T06:08:31.426Z,7.15
2019-02-19T06:09:29.995Z,7.21
2019-02-19T06:10:28.637Z,7.12
2019-02-19T06:11:27.311Z,7.17
2019-02-19T06:12:25.868Z,7.27
2019-02-19T06:13:24.399Z,7.34
2019-02-19T06:14:22.983Z,7.3
2019-02-19T06:15:21.525Z,7.43
2019-02-19T06:16:20.088Z,7.43
2019-02-19T06:34:03.086Z,8.48
2019-02-19T06:35:01.635Z,8.47
2019-02-19T06:36:00.182Z,8.45
2019-02-19T06:36:58.771Z,8.48
2019-02-19T06:37:57.429Z,8.63
2019-02-19T06:38:55.961Z,8.8
2019-02-19T06:39:54.562Z,9.14
2019-02-19T06:40:53.268Z,9.05
2019-02-19T06:41:51.855Z,9.04
2019-02-19T06:42:50.488Z,8.89
2019-02-19T06:43:49.096Z,8.74
2019-02-19T06:44:47.650Z,8.7
2019-02-19T06:45:46.208Z,8.47
2019-02-19T06:46:44.738Z,8.61
2019-02-19T06:47:43.300Z,8.58
2019-02-19T06:48:41.916Z,8.68
2019-02-19T06:49:40.662Z,9.11
2019-02-19T06:50:39.414Z,9.13
2019-02-19T06:51:37.962Z,9.02
2019-02-19T06:52:36.531Z,9.08
2019-02-19T06:53:35.193Z,8.99
2019-02-19T06:54:34.303Z,8.68
2019-02-19T06:55:33.153Z,8.59
2019-02-19T06:56:31.801Z,8.58
2019-02-19T06:57:30.379Z,8.55
2019-02-19T06:58:28.908Z,8.48
2019-02-19T06:59:27.485Z,8.55
2019-02-19T07:00:26.022Z,8.48
2019-02-19T07:01:24.637Z,8.58
2019-02-19T07:02:23.235Z,8.65
2019-02-19T07:03:21.768Z,8.77
2019-02-19T07:04:20.366Z,8.8
2019-02-19T07:05:18.915Z,8.87
2019-02-19T07:06:17.898Z,8.83
2019-02-19T07:07:16.524Z,8.87
2019-02-19T07:08:15.094Z,8.94
2019-02-19T07:09:13.641Z,8.94
2019-02-19T07:10:12.317Z,8.96
2019-02-19T07:11:10.997Z,9.05
2019-02-19T07:12:09.740Z,9.05
2019-02-19T07:13:08.324Z,9.13
2019-02-19T07:14:06.962Z,9.33
2019-02-19T07:15:05.578Z,9.57
2019-02-19T07:16:04.117Z,10.01
2019-02-19T07:17:02.695Z,10.2
2019-02-19T07:18:01.325Z,10.38
2019-02-19T07:18:59.895Z,10.38
2019-02-19T07:19:58.686Z,10.56
2019-02-19T07:20:57.416Z,10.56
2019-02-19T07:21:55.975Z,10.61
2019-02-19T07:22:54.651Z,10.53
2019-02-19T07:23:53.212Z,10.41
2019-02-19T07:24:51.781Z,10.27
2019-02-19T07:25:50.319Z,10.17
2019-02-19T07:26:49.025Z,10.17
2019-02-19T07:27:47.590Z,10.78
2019-02-19T07:28:46.185Z,10.92
2019-02-19T07:29:45.136Z,10.79
2019-02-19T07:30:43.767Z,10.94
2019-02-19T07:31:42.362Z,10.91
2019-02-19T07:32:41.032Z,10.86
2019-02-19T07:33:39.607Z,10.86
2019-02-19T07:34:38.147Z,10.88
2019-02-19T07:35:36.870Z,10.84
2019-02-19T07:36:35.447Z,10.74
2019-02-19T07:37:34.066Z,10.48
2019-02-19T07:38:33.653Z,10.45
2019-02-19T07:39:31.473Z,10.36
2019-02-19T07:40:30.027Z,10.6
2019-02-19T07:41:28.586Z,10.44
2019-02-19T07:42:27.140Z,10.52
2019-02-19T07:43:25.741Z,10.64
2019-02-19T07:44:24.285Z,10.66
2019-02-19T07:45:23.031Z,10.73
2019-02-19T07:46:21.786Z,10.48
2019-02-19T07:47:24.549Z,10.61
2019-02-19T07:48:19.103Z,10.76
2019-02-19T07:49:17.678Z,10.52
2019-02-19T07:50:16.517Z,10.6
2019-02-19T07:51:15.258Z,10.81
2019-02-19T07:52:13.808Z,10.78
2019-02-19T07:53:12.527Z,10.79
2019-02-19T07:54:11.208Z,10.86
2019-02-19T07:55:09.745Z,10.85
2019-02-19T07:56:08.315Z,10.94
2019-02-19T07:57:06.885Z,11.04
2019-02-19T07:58:05.434Z,11.27
2019-02-19T07:59:04.082Z,11.37
2019-02-19T08:00:02.736Z,11.46
2019-02-19T08:01:01.609Z,11.49
2019-02-19T08:02:01.137Z,11.4
2019-02-19T08:02:59.730Z,11.52
2019-02-19T08:03:58.286Z,11.52
2019-02-19T08:04:56.889Z,11.47
2019-02-19T08:05:55.490Z,11.44
2019-02-19T08:06:54.044Z,11.22
2019-02-19T08:07:52.577Z,11.28
2019-02-19T08:08:51.329Z,11.43
2019-02-19T08:09:49.868Z,11.58
2019-02-19T08:10:48.629Z,11.7
2019-02-19T08:11:47.290Z,11.67
2019-02-19T08:12:45.886Z,11.61
2019-02-19T08:13:44.478Z,11.79
2019-02-19T08:14:43.070Z,11.67
2019-02-19T08:15:41.629Z,11.69
2019-02-19T08:16:40.219Z,11.64
2019-02-19T08:17:38.749Z,11.44
2019-02-19T08:18:37.422Z,11.36
2019-02-19T08:19:35.972Z,11.39
2019-02-19T08:20:34.524Z,11.18
2019-02-19T08:21:33.206Z,10.99
2019-02-19T08:22:31.768Z,10.96
2019-02-19T08:23:30.434Z,10.99
2019-02-19T08:24:29.118Z,11.1
2019-02-19T08:25:27.686Z,10.97
2019-02-19T08:26:26.265Z,11.03
2019-02-19T08:27:24.914Z,11.11
2019-02-19T08:28:23.479Z,11.22
2019-02-19T08:29:22.016Z,11.24
2019-02-19T08:30:20.645Z,11.35
2019-02-19T08:31:19.539Z,11.15
2019-02-19T08:32:18.087Z,10.99
2019-02-19T08:33:17.092Z,10.78
2019-02-19T08:34:15.665Z,10.78
2019-02-19T08:35:14.235Z,10.92
2019-02-19T08:36:12.837Z,10.88
2019-02-19T08:37:11.612Z,10.81
2019-02-19T08:38:10.201Z,10.84
2019-02-19T08:39:08.929Z,10.81
2019-02-19T08:40:07.500Z,10.76
2019-02-19T08:41:06.033Z,11.33
2019-02-19T08:42:04.788Z,11.58
2019-02-19T08:43:03.427Z,11.51
2019-02-19T08:44:01.963Z,11.54
2019-02-19T08:45:00.522Z,11.72
2019-02-19T08:45:59.283Z,11.75
2019-02-19T08:46:57.905Z,11.54
2019-02-19T08:47:56.464Z,11.57
2019-02-19T08:48:55.125Z,11.52
2019-02-19T08:49:53.706Z,11.57
2019-02-19T08:50:52.235Z,11.61
2019-02-19T08:51:56.010Z,11.58
2019-02-19T08:52:49.429Z,11.62
2019-02-19T08:53:48.009Z,11.65
2019-02-19T08:54:46.644Z,11.37
2019-02-19T08:55:45.654Z,11.55
2019-02-19T08:56:44.226Z,11.54
2019-02-19T08:57:43.166Z,11.62
2019-02-19T08:58:41.796Z,11.7
2019-02-19T08:59:40.629Z,11.73
2019-02-19T09:00:39.268Z,11.78
2019-02-19T09:01:37.828Z,11.83
2019-02-19T09:02:36.367Z,11.94
2019-02-19T09:03:34.924Z,12.12
2019-02-19T09:04:33.454Z,12.27
2019-02-19T09:05:32.111Z,12.34
2019-02-19T09:06:30.698Z,12.28
2019-02-19T09:07:38.606Z,12.13
2019-02-19T09:08:37.141Z,12.19
2019-02-19T09:09:35.680Z,12.04
2019-02-19T09:10:34.249Z,11.83
2019-02-19T09:11:32.786Z,11.82
2019-02-19T09:12:31.445Z,11.75
2019-02-19T09:13:29.948Z,11.7
2019-02-19T09:14:28.847Z,11.65
2019-02-19T09:15:27.437Z,11.72
2019-02-19T09:16:26.068Z,11.69
2019-02-19T09:17:24.642Z,11.98
2019-02-19T09:18:23.225Z,12.13
2019-02-19T09:19:21.787Z,12.13
2019-02-19T09:20:20.459Z,12.04
2019-02-19T09:21:18.988Z,11.98
2019-02-19T09:22:17.545Z,11.78
2019-02-19T09:23:16.104Z,11.79
2019-02-19T09:24:14.746Z,11.75
2019-02-19T09:25:13.395Z,11.67
2019-02-19T09:26:11.961Z,11.67
2019-02-19T09:27:33.392Z,11.69
2019-02-19T09:28:31.923Z,11.64
2019-02-19T09:29:30.457Z,11.8
2019-02-19T09:30:29.284Z,12.28
2019-02-19T09:31:27.829Z,12.41
2019-02-19T09:32:26.398Z,12.23
2019-02-19T09:33:25.284Z,12.34
2019-02-19T09:34:23.949Z,12.13
2019-02-19T09:35:22.449Z,12.01
2019-02-19T09:36:21.089Z,11.99
2019-02-19T09:37:19.676Z,12.01
2019-02-19T09:38:18.215Z,12.02
2019-02-19T09:40:58.843Z,12.21
2019-02-19T09:41:57.530Z,12.13
2019-02-19T09:42:56.078Z,12.28
2019-02-19T09:43:54.628Z,12.23
2019-02-19T09:44:53.206Z,12.29
2019-02-19T09:45:51.724Z,12.45
2019-02-19T09:46:50.266Z,12.52
2019-02-19T09:47:48.846Z,12.39
2019-02-19T09:48:47.477Z,12.46
2019-02-19T09:49:46.020Z,12.47
2019-02-19T10:08:10.178Z,12.7
2019-02-19T10:09:08.970Z,12.71
2019-02-19T10:10:07.740Z,12.7
2019-02-19T10:11:06.171Z,12.64
2019-02-19T10:12:04.823Z,12.71
2019-02-19T10:13:03.486Z,12.68
2019-02-19T10:14:02.192Z,12.72
2019-02-19T10:15:00.776Z,12.7
2019-02-19T10:15:59.570Z,12.74
2019-02-19T10:16:58.419Z,12.7
2019-02-19T10:17:57.124Z,12.71
2019-02-19T10:18:55.690Z,12.67
2019-02-19T10:19:54.233Z,12.71
2019-02-19T10:20:53.050Z,12.71
2019-02-19T10:21:51.660Z,12.74
2019-02-19T10:22:50.321Z,12.86
2019-02-19T10:23:48.959Z,12.95
2019-02-19T10:24:47.592Z,13.12
2019-02-19T10:25:46.436Z,12.96
2019-02-19T10:26:45.290Z,12.83
2019-02-19T10:27:43.927Z,12.78
2019-02-19T10:28:42.482Z,12.7
2019-02-19T10:29:41.084Z,13.22
2019-02-19T10:30:39.636Z,13.14
2019-02-19T10:31:38.143Z,12.92
2019-02-19T10:32:36.686Z,12.85
2019-02-19T10:33:35.245Z,12.64
2019-02-19T10:34:33.811Z,12.62
2019-02-19T10:35:32.420Z,12.6
2019-02-19T10:36:31.355Z,12.65
2019-02-19T10:37:30.307Z,12.6
2019-02-19T10:38:29.290Z,12.42
2019-02-19T10:39:27.885Z,12.39
2019-02-19T10:40:26.674Z,12.42
2019-02-19T10:41:25.371Z,12.42
2019-02-19T10:42:23.837Z,12.38
2019-02-19T10:43:23.497Z,12.62
2019-02-19T10:44:21.547Z,12.42
2019-02-19T10:45:20.251Z,12.45
2019-02-19T10:46:18.841Z,12.37
2019-02-19T10:47:17.490Z,12.28
2019-02-19T10:48:18.898Z,12.28
2019-02-19T10:49:14.743Z,12.31
2019-02-19T10:50:13.368Z,12.23
2019-02-19T10:51:12.475Z,12.13
2019-02-19T10:52:11.577Z,12.38
2019-02-19T10:53:10.250Z,12.56
2019-02-19T10:54:09.165Z,12.59
2019-02-19T10:55:07.988Z,12.59
2019-02-19T10:56:06.673Z,12.6
2019-02-19T10:57:05.333Z,12.6
2019-02-19T10:58:03.990Z,12.67
2019-02-19T10:59:02.732Z,12.52
2019-02-19T11:00:01.354Z,12.5
2019-02-19T11:00:59.908Z,12.54
2019-02-19T11:01:58.834Z,12.49
2019-02-19T11:02:57.474Z,12.32
2019-02-19T11:03:56.175Z,12.37
2019-02-19T11:04:54.836Z,12.37
2019-02-19T11:05:53.817Z,12.39
2019-02-19T11:06:52.456Z,12.28
2019-02-19T11:07:51.058Z,12.28
2019-02-19T11:08:49.580Z,12.37
2019-02-19T11:09:48.159Z,12.59
2019-02-19T11:10:46.757Z,12.54
2019-02-19T11:11:45.619Z,12.39
2019-02-19T11:12:44.182Z,12.52
2019-02-19T11:13:43.040Z,12.6
2019-02-19T11:14:41.893Z,12.49
2019-02-19T11:15:40.482Z,12.53
2019-02-19T11:16:39.408Z,12.35
2019-02-19T11:17:38.056Z,12.28
2019-02-19T11:18:36.713Z,12.39
2019-02-19T11:19:35.369Z,12.5
2019-02-19T11:20:33.981Z,12.37
2019-02-19T11:21:32.679Z,12.38
2019-02-19T11:22:31.606Z,12.49
2019-02-19T11:23:30.378Z,12.45
2019-02-19T11:24:28.929Z,12.59
2019-02-19T11:25:27.651Z,12.47
2019-02-19T11:26:26.285Z,12.35
2019-02-19T11:27:25.025Z,12.71
2019-02-19T11:28:23.577Z,12.53
2019-02-19T11:29:22.146Z,12.56
2019-02-19T11:30:20.810Z,12.45
2019-02-19T11:31:19.669Z,12.5
2019-02-19T11:32:18.129Z,12.45
2019-02-19T11:33:16.865Z,12.53
2019-02-19T11:34:15.676Z,12.57
2019-02-19T11:35:14.384Z,12.64
2019-02-19T11:36:13.423Z,12.57
2019-02-19T11:37:12.080Z,12.7
2019-02-19T11:38:10.813Z,12.67
2019-02-19T11:39:09.599Z,12.6
2019-02-19T11:40:08.251Z,12.49
2019-02-19T11:41:07.055Z,12.64
2019-02-19T11:42:05.759Z,12.65
2019-02-19T11:43:04.304Z,12.67
2019-02-19T11:44:03.020Z,12.7
2019-02-19T11:45:01.661Z,12.62
2019-02-19T11:46:00.350Z,12.65
2019-02-19T11:48:40.884Z,12.7
2019-02-19T11:49:39.599Z,12.56
2019-02-19T11:50:38.580Z,12.6
2019-02-19T11:51:37.387Z,12.57
2019-02-19T11:52:35.947Z,12.59
2019-02-19T11:53:34.510Z,12.49
2019-02-19T11:54:33.092Z,12.53
2019-02-19T11:55:31.661Z,12.64
2019-02-19T11:56:30.386Z,12.59
2019-02-19T11:57:28.912Z,12.52
2019-02-19T11:58:27.608Z,12.59
2019-02-19T11:59:26.157Z,12.49
2019-02-19T12:00:24.782Z,12.28
2019-02-19T12:01:23.541Z,12.29
2019-02-19T12:02:22.059Z,12.28
2019-02-19T12:03:20.648Z,12.21
2019-02-19T12:04:19.312Z,12.13
2019-02-19T12:05:17.878Z,12.28
2019-02-19T12:06:16.408Z,12.23
2019-02-19T12:07:15.099Z,12.37
2019-02-19T12:08:13.852Z,12.24
2019-02-19T12:09:12.547Z,12.23
2019-02-19T12:10:11.985Z,12.28
2019-02-19T12:11:09.869Z,12.46
2019-02-19T12:12:08.431Z,12.29
2019-02-19T12:13:06.992Z,12.32
2019-02-19T12:14:05.529Z,12.5
2019-02-19T12:15:04.092Z,12.47
2019-02-19T12:16:02.715Z,12.5
2019-02-19T12:17:01.362Z,12.52
2019-02-19T12:17:59.870Z,12.49
2019-02-19T12:18:58.426Z,12.5
2019-02-19T12:19:57.263Z,12.53
2019-02-19T12:20:55.802Z,12.39
2019-02-19T12:21:54.417Z,12.41
2019-02-19T12:22:53.095Z,12.34
2019-02-19T12:23:51.723Z,12.38
2019-02-19T12:24:50.282Z,12.34
2019-02-19T12:25:49.019Z,12.41
2019-02-19T12:26:47.671Z,12.38
2019-02-19T12:27:46.202Z,12.39
2019-02-19T12:28:44.840Z,12.41
2019-02-19T12:29:43.494Z,12.38
2019-02-19T12:30:42.060Z,12.38
2019-02-19T12:31:40.664Z,12.37
2019-02-19T12:32:39.221Z,12.53
2019-02-19T12:33:37.775Z,12.62
2019-02-19T12:34:36.331Z,12.39
2019-02-19T12:35:35.059Z,12.28
2019-02-19T12:36:33.730Z,12.38
2019-02-19T12:37:32.269Z,12.39
2019-02-19T12:38:31.057Z,12.42
2019-02-19T12:39:29.598Z,12.45
2019-02-19T12:40:28.161Z,12.41
2019-02-19T12:41:26.784Z,12.35
2019-02-19T12:42:25.477Z,12.5
2019-02-19T12:43:24.013Z,12.46
2019-02-19T12:44:23.033Z,12.38
2019-02-19T12:45:21.623Z,12.41
2019-02-19T12:46:20.213Z,12.5
2019-02-19T12:47:18.837Z,12.57
2019-02-19T12:48:17.501Z,12.62
2019-02-19T12:49:16.526Z,12.64
2019-02-19T12:50:14.794Z,12.53
2019-02-19T12:51:13.458Z,12.7
2019-02-19T12:52:11.990Z,12.7
2019-02-19T12:53:10.570Z,12.71
2019-02-19T12:54:09.352Z,12.71
2019-02-19T12:55:07.928Z,12.68
2019-02-19T12:56:06.471Z,12.7
2019-02-19T12:57:05.114Z,12.65
2019-02-19T12:58:03.678Z,12.62
2019-02-19T12:59:02.212Z,12.71
2019-02-19T13:00:00.778Z,12.71
2019-02-19T13:00:59.396Z,12.83
2019-02-19T13:01:57.991Z,12.83
2019-02-19T13:02:56.504Z,12.7
2019-02-19T13:03:55.149Z,12.74
2019-02-19T13:04:53.754Z,12.9
2019-02-19T13:05:52.309Z,12.82
2019-02-19T13:06:51.135Z,12.82
2019-02-19T13:07:49.820Z,12.86
2019-02-19T13:08:48.386Z,12.83
2019-02-19T13:09:46.879Z,12.85
2019-02-19T13:10:45.441Z,12.89
2019-02-19T13:11:44.025Z,12.75
2019-02-19T13:12:42.705Z,12.93
2019-02-19T13:13:41.521Z,12.97
2019-02-19T13:14:40.088Z,13
2019-02-19T13:15:38.635Z,12.95
2019-02-19T13:16:37.338Z,13.1
2019-02-19T13:17:35.929Z,13.04
2019-02-19T13:18:34.418Z,13.22
2019-02-19T13:19:32.978Z,13.23
2019-02-19T13:20:31.541Z,13.3
2019-02-19T13:21:30.085Z,13.2
2019-02-19T13:22:28.832Z,13.28
2019-02-19T13:23:27.735Z,13.33
2019-02-19T13:24:26.276Z,13.3
2019-02-19T13:25:25.014Z,13.19
2019-02-19T13:26:23.733Z,13.25
2019-02-19T13:27:22.277Z,13.38
2019-02-19T13:28:20.854Z,13.49
2019-02-19T13:29:19.485Z,13.63
2019-02-19T13:30:18.195Z,13.51
2019-02-19T13:31:16.781Z,13.55
2019-02-19T13:32:15.478Z,13.57
2019-02-19T13:33:14.066Z,13.42
2019-02-19T13:34:12.607Z,13.55
2019-02-19T13:35:11.185Z,13.54
2019-02-19T13:36:09.745Z,13.32
2019-02-19T13:37:08.290Z,13.57
2019-02-19T13:38:06.871Z,13.55
2019-02-19T13:39:05.414Z,13.55
2019-02-19T13:40:03.951Z,13.54
2019-02-19T13:41:02.494Z,13.54
2019-02-19T13:42:01.234Z,13.55
2019-02-19T13:43:00.052Z,13.55
2019-02-19T13:43:58.760Z,13.44
2019-02-19T13:44:57.408Z,13.38
2019-02-19T13:45:56.030Z,13.32
2019-02-19T13:46:54.705Z,13.39
2019-02-19T13:47:53.333Z,13.45